sensor_id;sensor_type;location;lat;lon;timestamp;temperature;humidity
5689;DHT22;2869;50.432;8.680;2023-06-24T00:02:15;16.80;99.90
5689;DHT22;2869;50.432;8.680;2023-06-24T00:04:42;16.80;99.90
5689;DHT22;2869;50.432;8.680;2023-06-24T00:07:09;16.80;99.90
5689;DHT22;2869;50.432;8.680;2023-06-24T00:09:35;16.70;99.90
5689;DHT22;2869;50.432;8.680;2023-06-24T00:12:03;16.70;99.90
5689;DHT22;2869;50.432;8.680;2023-06-24T00:14:30;16.60;99.90
5689;DHT22;2869;50.432;8.680;2023-06-24T00:16:57;16.60;99.90
5689;DHT22;2869;50.432;8.680;2023-06-24T00:19:26;16.60;99.90
5689;DHT22;2869;50.432;8.680;2023-06-24T00:21:53;16.60;99.90
5689;DHT22;2869;50.432;8.680;2023-06-24T00:24:20;16.50;99.90
5689;DHT22;2869;50.432;8.680;2023-06-24T00:26:51;16.50;99.90
5689;DHT22;2869;50.432;8.680;2023-06-24T00:29:17;16.50;99.90
5689;DHT22;2869;50.432;8.680;2023-06-24T00:31:44;16.40;99.90
5689;DHT22;2869;50.432;8.680;2023-06-24T00:34:10;16.30;99.90
5689;DHT22;2869;50.432;8.680;2023-06-24T00:36:38;16.30;99.90
5689;DHT22;2869;50.432;8.680;2023-06-24T00:39:06;16.20;99.90
5689;DHT22;2869;50.432;8.680;2023-06-24T00:41:34;16.10;99.90
5689;DHT22;2869;50.432;8.680;2023-06-24T00:44:01;16.10;99.90
5689;DHT22;2869;50.432;8.680;2023-06-24T00:46:29;16.00;99.90
5689;DHT22;2869;50.432;8.680;2023-06-24T00:48:57;16.00;99.90
5689;DHT22;2869;50.432;8.680;2023-06-24T00:51:26;16.00;99.90
5689;DHT22;2869;50.432;8.680;2023-06-24T00:53:57;16.00;99.90
5689;DHT22;2869;50.432;8.680;2023-06-24T00:56:27;16.00;99.90
5689;DHT22;2869;50.432;8.680;2023-06-24T00:58:54;15.90;99.90
5689;DHT22;2869;50.432;8.680;2023-06-24T01:01:21;15.90;99.90
5689;DHT22;2869;50.432;8.680;2023-06-24T01:03:49;15.90;99.90
5689;DHT22;2869;50.432;8.680;2023-06-24T01:06:16;15.90;99.90
5689;DHT22;2869;50.432;8.680;2023-06-24T01:08:44;15.80;99.90
5689;DHT22;2869;50.432;8.680;2023-06-24T01:11:18;15.80;99.90
5689;DHT22;2869;50.432;8.680;2023-06-24T01:13:44;15.80;99.90
5689;DHT22;2869;50.432;8.680;2023-06-24T01:16:19;15.80;99.90
5689;DHT22;2869;50.432;8.680;2023-06-24T01:18:54;15.70;99.90
5689;DHT22;2869;50.432;8.680;2023-06-24T01:21:34;15.70;99.90
5689;DHT22;2869;50.432;8.680;2023-06-24T01:24:29;15.60;99.90
5689;DHT22;2869;50.432;8.680;2023-06-24T01:27:14;15.60;99.90
5689;DHT22;2869;50.432;8.680;2023-06-24T01:32:51;15.50;99.90
5689;DHT22;2869;50.432;8.680;2023-06-24T01:35:21;15.50;99.90
5689;DHT22;2869;50.432;8.680;2023-06-24T01:37:51;15.50;99.90
5689;DHT22;2869;50.432;8.680;2023-06-24T01:40:22;15.60;99.90
5689;DHT22;2869;50.432;8.680;2023-06-24T01:42:49;15.60;99.90
5689;DHT22;2869;50.432;8.680;2023-06-24T01:45:19;15.60;99.90
5689;DHT22;2869;50.432;8.680;2023-06-24T01:47:54;15.50;99.90
5689;DHT22;2869;50.432;8.680;2023-06-24T01:50:25;15.40;99.90
5689;DHT22;2869;50.432;8.680;2023-06-24T01:52:53;15.30;99.90
5689;DHT22;2869;50.432;8.680;2023-06-24T01:55:21;15.30;99.90
5689;DHT22;2869;50.432;8.680;2023-06-24T01:57:50;15.30;99.90
5689;DHT22;2869;50.432;8.680;2023-06-24T02:00:18;15.20;99.90
5689;DHT22;2869;50.432;8.680;2023-06-24T02:02:45;15.20;99.90
5689;DHT22;2869;50.432;8.680;2023-06-24T02:05:15;15.30;99.90
5689;DHT22;2869;50.432;8.680;2023-06-24T02:07:43;15.30;99.90
5689;DHT22;2869;50.432;8.680;2023-06-24T02:10:10;15.30;99.90
5689;DHT22;2869;50.432;8.680;2023-06-24T02:12:37;15.30;99.90
5689;DHT22;2869;50.432;8.680;2023-06-24T02:15:07;15.20;99.90
5689;DHT22;2869;50.432;8.680;2023-06-24T02:17:35;15.20;99.90
5689;DHT22;2869;50.432;8.680;2023-06-24T02:20:04;15.30;99.90
5689;DHT22;2869;50.432;8.680;2023-06-24T02:22:34;15.30;99.90
5689;DHT22;2869;50.432;8.680;2023-06-24T02:25:01;15.20;99.90
5689;DHT22;2869;50.432;8.680;2023-06-24T02:27:29;15.20;99.90
5689;DHT22;2869;50.432;8.680;2023-06-24T02:29:57;15.20;99.90
5689;DHT22;2869;50.432;8.680;2023-06-24T02:32:25;15.20;99.90
5689;DHT22;2869;50.432;8.680;2023-06-24T02:34:51;15.10;99.90
5689;DHT22;2869;50.432;8.680;2023-06-24T02:37:18;15.10;99.90
5689;DHT22;2869;50.432;8.680;2023-06-24T02:39:46;15.10;99.90
5689;DHT22;2869;50.432;8.680;2023-06-24T02:42:13;15.10;99.90
5689;DHT22;2869;50.432;8.680;2023-06-24T02:44:40;15.10;99.90
5689;DHT22;2869;50.432;8.680;2023-06-24T02:47:10;15.10;99.90
5689;DHT22;2869;50.432;8.680;2023-06-24T02:49:37;15.00;99.90
5689;DHT22;2869;50.432;8.680;2023-06-24T02:52:05;15.00;99.90
5689;DHT22;2869;50.432;8.680;2023-06-24T02:54:33;15.00;99.90
5689;DHT22;2869;50.432;8.680;2023-06-24T02:57:01;14.90;99.90
5689;DHT22;2869;50.432;8.680;2023-06-24T02:59:28;14.90;99.90
5689;DHT22;2869;50.432;8.680;2023-06-24T03:01:55;14.90;99.90
5689;DHT22;2869;50.432;8.680;2023-06-24T03:04:22;14.90;99.90
5689;DHT22;2869;50.432;8.680;2023-06-24T03:06:49;14.90;99.90
5689;DHT22;2869;50.432;8.680;2023-06-24T03:09:16;14.90;99.90
5689;DHT22;2869;50.432;8.680;2023-06-24T03:11:44;14.80;99.90
5689;DHT22;2869;50.432;8.680;2023-06-24T03:14:12;14.80;99.90
5689;DHT22;2869;50.432;8.680;2023-06-24T03:16:39;14.80;99.90
5689;DHT22;2869;50.432;8.680;2023-06-24T03:19:06;14.80;99.90
5689;DHT22;2869;50.432;8.680;2023-06-24T03:21:33;14.80;99.90
5689;DHT22;2869;50.432;8.680;2023-06-24T03:23:59;14.80;99.90
5689;DHT22;2869;50.432;8.680;2023-06-24T03:26:31;14.80;99.90
5689;DHT22;2869;50.432;8.680;2023-06-24T03:28:58;14.80;99.90
5689;DHT22;2869;50.432;8.680;2023-06-24T03:31:26;14.80;99.90
5689;DHT22;2869;50.432;8.680;2023-06-24T03:33:53;14.80;99.90
5689;DHT22;2869;50.432;8.680;2023-06-24T03:36:20;14.70;99.90
5689;DHT22;2869;50.432;8.680;2023-06-24T03:38:46;14.60;99.90
5689;DHT22;2869;50.432;8.680;2023-06-24T03:41:13;14.50;99.90
5689;DHT22;2869;50.432;8.680;2023-06-24T03:43:39;14.50;99.90
5689;DHT22;2869;50.432;8.680;2023-06-24T03:46:07;14.60;99.90
5689;DHT22;2869;50.432;8.680;2023-06-24T03:48:35;14.60;99.90
5689;DHT22;2869;50.432;8.680;2023-06-24T03:51:02;14.60;99.90
5689;DHT22;2869;50.432;8.680;2023-06-24T03:53:28;14.70;99.90
5689;DHT22;2869;50.432;8.680;2023-06-24T03:55:55;14.70;99.90
5689;DHT22;2869;50.432;8.680;2023-06-24T03:58:22;14.70;99.90
5689;DHT22;2869;50.432;8.680;2023-06-24T04:00:48;14.60;99.90
5689;DHT22;2869;50.432;8.680;2023-06-24T04:03:15;14.60;99.90
5689;DHT22;2869;50.432;8.680;2023-06-24T04:05:44;14.50;99.90
5689;DHT22;2869;50.432;8.680;2023-06-24T04:08:11;14.50;99.90
5689;DHT22;2869;50.432;8.680;2023-06-24T04:10:38;14.50;99.90
5689;DHT22;2869;50.432;8.680;2023-06-24T04:13:04;14.40;99.90
5689;DHT22;2869;50.432;8.680;2023-06-24T04:15:31;14.30;99.90
5689;DHT22;2869;50.432;8.680;2023-06-24T04:17:57;14.30;99.90
5689;DHT22;2869;50.432;8.680;2023-06-24T04:20:25;14.30;99.90
5689;DHT22;2869;50.432;8.680;2023-06-24T04:22:53;14.30;99.90
5689;DHT22;2869;50.432;8.680;2023-06-24T04:25:20;14.30;99.90
5689;DHT22;2869;50.432;8.680;2023-06-24T04:27:46;14.40;99.90
5689;DHT22;2869;50.432;8.680;2023-06-24T04:30:13;14.30;99.90
5689;DHT22;2869;50.432;8.680;2023-06-24T04:32:39;14.30;99.90
5689;DHT22;2869;50.432;8.680;2023-06-24T04:35:07;14.40;99.90
5689;DHT22;2869;50.432;8.680;2023-06-24T04:37:34;14.40;99.90
5689;DHT22;2869;50.432;8.680;2023-06-24T04:40:02;14.40;99.90
5689;DHT22;2869;50.432;8.680;2023-06-24T04:42:29;14.50;99.90
5689;DHT22;2869;50.432;8.680;2023-06-24T04:44:55;14.60;99.90
5689;DHT22;2869;50.432;8.680;2023-06-24T04:47:22;14.70;99.90
5689;DHT22;2869;50.432;8.680;2023-06-24T04:49:49;14.90;99.90
5689;DHT22;2869;50.432;8.680;2023-06-24T04:52:16;14.90;99.90
5689;DHT22;2869;50.432;8.680;2023-06-24T04:54:42;15.00;99.90
5689;DHT22;2869;50.432;8.680;2023-06-24T04:57:23;15.20;99.90
5689;DHT22;2869;50.432;8.680;2023-06-24T04:59:50;15.40;99.90
5689;DHT22;2869;50.432;8.680;2023-06-24T05:02:16;15.90;99.90
5689;DHT22;2869;50.432;8.680;2023-06-24T05:04:46;16.30;99.90
5689;DHT22;2869;50.432;8.680;2023-06-24T05:07:13;16.70;99.90
5689;DHT22;2869;50.432;8.680;2023-06-24T05:09:40;17.00;99.90
5689;DHT22;2869;50.432;8.680;2023-06-24T05:12:07;17.20;99.90
5689;DHT22;2869;50.432;8.680;2023-06-24T05:14:36;17.40;99.90
5689;DHT22;2869;50.432;8.680;2023-06-24T05:17:03;17.70;99.90
5689;DHT22;2869;50.432;8.680;2023-06-24T05:19:30;17.90;99.90
5689;DHT22;2869;50.432;8.680;2023-06-24T05:21:56;17.70;99.90
5689;DHT22;2869;50.432;8.680;2023-06-24T05:24:23;17.50;99.90
5689;DHT22;2869;50.432;8.680;2023-06-24T05:26:51;17.60;99.90
5689;DHT22;2869;50.432;8.680;2023-06-24T05:29:18;17.80;99.90
5689;DHT22;2869;50.432;8.680;2023-06-24T05:31:46;17.90;99.90
5689;DHT22;2869;50.432;8.680;2023-06-24T05:34:12;18.00;99.90
5689;DHT22;2869;50.432;8.680;2023-06-24T05:36:39;18.00;99.90
5689;DHT22;2869;50.432;8.680;2023-06-24T05:39:06;18.10;99.90
5689;DHT22;2869;50.432;8.680;2023-06-24T05:41:33;18.10;99.90
5689;DHT22;2869;50.432;8.680;2023-06-24T05:44:04;18.10;99.90
5689;DHT22;2869;50.432;8.680;2023-06-24T05:46:31;18.10;99.90
5689;DHT22;2869;50.432;8.680;2023-06-24T05:48:59;18.20;99.90
5689;DHT22;2869;50.432;8.680;2023-06-24T05:51:25;18.10;99.90
5689;DHT22;2869;50.432;8.680;2023-06-24T05:53:52;17.90;99.90
5689;DHT22;2869;50.432;8.680;2023-06-24T05:56:20;18.00;99.90
5689;DHT22;2869;50.432;8.680;2023-06-24T05:58:47;18.00;99.90
5689;DHT22;2869;50.432;8.680;2023-06-24T06:01:13;17.90;99.90
5689;DHT22;2869;50.432;8.680;2023-06-24T06:03:40;18.00;99.90
5689;DHT22;2869;50.432;8.680;2023-06-24T06:06:08;18.00;99.90
5689;DHT22;2869;50.432;8.680;2023-06-24T06:08:35;17.90;99.90
5689;DHT22;2869;50.432;8.680;2023-06-24T06:11:01;17.90;99.90
5689;DHT22;2869;50.432;8.680;2023-06-24T06:13:28;18.00;99.90
5689;DHT22;2869;50.432;8.680;2023-06-24T06:15:55;18.00;99.90
5689;DHT22;2869;50.432;8.680;2023-06-24T06:18:21;18.00;99.90
5689;DHT22;2869;50.432;8.680;2023-06-24T06:20:48;18.10;99.90
5689;DHT22;2869;50.432;8.680;2023-06-24T06:23:16;18.30;99.90
5689;DHT22;2869;50.432;8.680;2023-06-24T06:25:43;18.40;99.90
5689;DHT22;2869;50.432;8.680;2023-06-24T06:28:10;18.60;99.90
5689;DHT22;2869;50.432;8.680;2023-06-24T06:30:36;18.70;99.90
5689;DHT22;2869;50.432;8.680;2023-06-24T06:33:03;18.90;99.90
5689;DHT22;2869;50.432;8.680;2023-06-24T06:35:30;19.20;99.90
5689;DHT22;2869;50.432;8.680;2023-06-24T06:37:57;19.30;99.90
5689;DHT22;2869;50.432;8.680;2023-06-24T06:40:25;19.50;99.90
5689;DHT22;2869;50.432;8.680;2023-06-24T06:42:53;19.70;99.90
5689;DHT22;2869;50.432;8.680;2023-06-24T06:45:20;19.90;99.90
5689;DHT22;2869;50.432;8.680;2023-06-24T06:47:48;20.00;99.90
5689;DHT22;2869;50.432;8.680;2023-06-24T06:50:15;20.00;99.90
5689;DHT22;2869;50.432;8.680;2023-06-24T06:52:41;20.10;99.90
5689;DHT22;2869;50.432;8.680;2023-06-24T06:55:09;20.00;99.90
5689;DHT22;2869;50.432;8.680;2023-06-24T06:57:37;20.20;99.90
5689;DHT22;2869;50.432;8.680;2023-06-24T07:00:05;20.30;99.90
5689;DHT22;2869;50.432;8.680;2023-06-24T07:02:32;20.50;99.90
5689;DHT22;2869;50.432;8.680;2023-06-24T07:04:59;20.50;99.90
5689;DHT22;2869;50.432;8.680;2023-06-24T07:07:26;20.60;99.90
5689;DHT22;2869;50.432;8.680;2023-06-24T07:09:52;20.60;99.90
5689;DHT22;2869;50.432;8.680;2023-06-24T07:12:19;20.60;99.90
5689;DHT22;2869;50.432;8.680;2023-06-24T07:14:47;20.80;99.90
5689;DHT22;2869;50.432;8.680;2023-06-24T07:17:14;21.10;99.90
5689;DHT22;2869;50.432;8.680;2023-06-24T07:19:41;21.30;99.90
5689;DHT22;2869;50.432;8.680;2023-06-24T07:22:07;21.50;99.90
5689;DHT22;2869;50.432;8.680;2023-06-24T07:24:34;21.70;99.90
5689;DHT22;2869;50.432;8.680;2023-06-24T07:27:01;22.00;99.90
5689;DHT22;2869;50.432;8.680;2023-06-24T07:29:28;22.00;99.90
5689;DHT22;2869;50.432;8.680;2023-06-24T07:31:56;22.00;99.90
5689;DHT22;2869;50.432;8.680;2023-06-24T07:34:23;22.30;99.90
5689;DHT22;2869;50.432;8.680;2023-06-24T07:36:50;22.30;99.90
5689;DHT22;2869;50.432;8.680;2023-06-24T07:39:16;22.30;99.90
5689;DHT22;2869;50.432;8.680;2023-06-24T07:41:43;22.40;99.90
5689;DHT22;2869;50.432;8.680;2023-06-24T07:44:10;22.40;99.90
5689;DHT22;2869;50.432;8.680;2023-06-24T07:46:36;22.30;99.90
5689;DHT22;2869;50.432;8.680;2023-06-24T07:49:04;22.50;99.90
5689;DHT22;2869;50.432;8.680;2023-06-24T07:51:31;22.50;99.90
5689;DHT22;2869;50.432;8.680;2023-06-24T07:54:00;22.50;99.90
5689;DHT22;2869;50.432;8.680;2023-06-24T07:56:27;22.50;99.90
5689;DHT22;2869;50.432;8.680;2023-06-24T07:58:53;22.60;99.90
5689;DHT22;2869;50.432;8.680;2023-06-24T08:01:20;22.80;99.90
5689;DHT22;2869;50.432;8.680;2023-06-24T08:03:46;22.90;99.90
5689;DHT22;2869;50.432;8.680;2023-06-24T08:06:14;22.80;99.90
5689;DHT22;2869;50.432;8.680;2023-06-24T08:08:41;23.00;99.90
5689;DHT22;2869;50.432;8.680;2023-06-24T08:11:08;23.30;99.90
5689;DHT22;2869;50.432;8.680;2023-06-24T08:13:34;23.40;99.90
5689;DHT22;2869;50.432;8.680;2023-06-24T08:16:01;23.50;99.90
5689;DHT22;2869;50.432;8.680;2023-06-24T08:18:28;23.70;99.90
5689;DHT22;2869;50.432;8.680;2023-06-24T08:20:54;23.80;99.90
5689;DHT22;2869;50.432;8.680;2023-06-24T08:23:22;24.00;99.90
5689;DHT22;2869;50.432;8.680;2023-06-24T08:25:49;24.20;99.90
5689;DHT22;2869;50.432;8.680;2023-06-24T08:28:15;24.20;99.90
5689;DHT22;2869;50.432;8.680;2023-06-24T08:30:42;24.20;99.90
5689;DHT22;2869;50.432;8.680;2023-06-24T08:33:09;24.30;99.90
5689;DHT22;2869;50.432;8.680;2023-06-24T08:35:36;24.30;99.90
5689;DHT22;2869;50.432;8.680;2023-06-24T08:38:03;24.40;99.90
5689;DHT22;2869;50.432;8.680;2023-06-24T08:40:31;24.60;99.90
5689;DHT22;2869;50.432;8.680;2023-06-24T08:42:57;24.60;99.90
5689;DHT22;2869;50.432;8.680;2023-06-24T08:45:24;24.70;99.90
5689;DHT22;2869;50.432;8.680;2023-06-24T08:47:52;25.20;99.90
5689;DHT22;2869;50.432;8.680;2023-06-24T08:50:23;25.60;99.90
5689;DHT22;2869;50.432;8.680;2023-06-24T08:52:53;25.60;99.90
5689;DHT22;2869;50.432;8.680;2023-06-24T08:55:23;25.60;99.90
5689;DHT22;2869;50.432;8.680;2023-06-24T08:57:51;25.90;99.90
5689;DHT22;2869;50.432;8.680;2023-06-24T09:00:18;26.10;99.90
5689;DHT22;2869;50.432;8.680;2023-06-24T09:02:44;26.10;99.90
5689;DHT22;2869;50.432;8.680;2023-06-24T09:05:11;26.10;99.90
5689;DHT22;2869;50.432;8.680;2023-06-24T09:07:38;25.90;99.90
5689;DHT22;2869;50.432;8.680;2023-06-24T09:10:05;25.80;99.90
5689;DHT22;2869;50.432;8.680;2023-06-24T09:12:32;25.90;99.90
5689;DHT22;2869;50.432;8.680;2023-06-24T09:15:00;26.10;99.90
5689;DHT22;2869;50.432;8.680;2023-06-24T09:17:28;26.20;99.90
5689;DHT22;2869;50.432;8.680;2023-06-24T09:20:03;26.30;99.90
5689;DHT22;2869;50.432;8.680;2023-06-24T09:22:31;26.50;99.90
5689;DHT22;2869;50.432;8.680;2023-06-24T09:25:00;26.50;99.90
5689;DHT22;2869;50.432;8.680;2023-06-24T09:27:31;26.80;99.90
5689;DHT22;2869;50.432;8.680;2023-06-24T09:29:58;26.80;99.90
5689;DHT22;2869;50.432;8.680;2023-06-24T09:32:29;27.10;99.90
5689;DHT22;2869;50.432;8.680;2023-06-24T09:34:55;27.10;99.90
5689;DHT22;2869;50.432;8.680;2023-06-24T09:37:22;27.10;99.90
5689;DHT22;2869;50.432;8.680;2023-06-24T09:39:49;27.40;99.90
5689;DHT22;2869;50.432;8.680;2023-06-24T09:42:20;27.60;99.90
5689;DHT22;2869;50.432;8.680;2023-06-24T09:44:52;27.70;99.90
5689;DHT22;2869;50.432;8.680;2023-06-24T09:47:19;27.80;99.90
5689;DHT22;2869;50.432;8.680;2023-06-24T09:49:51;27.90;99.90
5689;DHT22;2869;50.432;8.680;2023-06-24T09:52:19;28.20;99.90
5689;DHT22;2869;50.432;8.680;2023-06-24T09:54:47;28.20;99.90
5689;DHT22;2869;50.432;8.680;2023-06-24T09:57:18;28.30;99.90
5689;DHT22;2869;50.432;8.680;2023-06-24T09:59:46;28.40;99.90
5689;DHT22;2869;50.432;8.680;2023-06-24T10:02:14;28.40;99.90
5689;DHT22;2869;50.432;8.680;2023-06-24T10:04:42;28.20;99.90
5689;DHT22;2869;50.432;8.680;2023-06-24T10:07:11;28.20;99.90
5689;DHT22;2869;50.432;8.680;2023-06-24T10:09:38;28.30;99.90
5689;DHT22;2869;50.432;8.680;2023-06-24T10:12:05;28.20;99.90
5689;DHT22;2869;50.432;8.680;2023-06-24T10:14:32;28.40;99.90
5689;DHT22;2869;50.432;8.680;2023-06-24T10:17:02;28.50;99.90
5689;DHT22;2869;50.432;8.680;2023-06-24T10:19:29;28.60;99.90
5689;DHT22;2869;50.432;8.680;2023-06-24T10:21:58;28.80;99.90
5689;DHT22;2869;50.432;8.680;2023-06-24T10:24:30;29.00;99.90
5689;DHT22;2869;50.432;8.680;2023-06-24T10:27:02;29.20;99.90
5689;DHT22;2869;50.432;8.680;2023-06-24T10:29:32;29.10;99.90
5689;DHT22;2869;50.432;8.680;2023-06-24T10:32:04;29.00;99.90
5689;DHT22;2869;50.432;8.680;2023-06-24T10:34:38;29.00;99.90
5689;DHT22;2869;50.432;8.680;2023-06-24T10:37:10;28.60;99.90
5689;DHT22;2869;50.432;8.680;2023-06-24T10:39:52;27.90;99.90
5689;DHT22;2869;50.432;8.680;2023-06-24T10:42:33;27.40;99.90
5689;DHT22;2869;50.432;8.680;2023-06-24T10:45:02;27.30;99.90
5689;DHT22;2869;50.432;8.680;2023-06-24T10:47:29;27.60;99.90
5689;DHT22;2869;50.432;8.680;2023-06-24T10:49:56;27.60;99.90
5689;DHT22;2869;50.432;8.680;2023-06-24T10:52:23;27.50;99.90
5689;DHT22;2869;50.432;8.680;2023-06-24T10:54:52;27.40;99.90
5689;DHT22;2869;50.432;8.680;2023-06-24T10:57:23;27.40;99.90
5689;DHT22;2869;50.432;8.680;2023-06-24T10:59:50;28.00;99.90
5689;DHT22;2869;50.432;8.680;2023-06-24T11:02:18;28.30;99.90
5689;DHT22;2869;50.432;8.680;2023-06-24T11:04:46;28.00;99.90
5689;DHT22;2869;50.432;8.680;2023-06-24T11:07:14;27.80;99.90
5689;DHT22;2869;50.432;8.680;2023-06-24T11:09:41;27.60;99.90
5689;DHT22;2869;50.432;8.680;2023-06-24T11:12:10;27.70;99.90
5689;DHT22;2869;50.432;8.680;2023-06-24T11:14:38;27.60;99.90
5689;DHT22;2869;50.432;8.680;2023-06-24T11:17:05;27.50;99.90
5689;DHT22;2869;50.432;8.680;2023-06-24T11:19:32;27.30;99.90
5689;DHT22;2869;50.432;8.680;2023-06-24T11:22:02;27.60;99.90
5689;DHT22;2869;50.432;8.680;2023-06-24T11:24:29;28.00;99.90
5689;DHT22;2869;50.432;8.680;2023-06-24T11:26:56;28.10;99.90
5689;DHT22;2869;50.432;8.680;2023-06-24T11:29:24;27.90;99.90
5689;DHT22;2869;50.432;8.680;2023-06-24T11:31:54;28.00;99.90
5689;DHT22;2869;50.432;8.680;2023-06-24T11:34:21;27.90;99.90
5689;DHT22;2869;50.432;8.680;2023-06-24T11:36:48;27.90;99.90
5689;DHT22;2869;50.432;8.680;2023-06-24T11:39:21;27.70;99.90
5689;DHT22;2869;50.432;8.680;2023-06-24T11:41:48;27.70;99.90
5689;DHT22;2869;50.432;8.680;2023-06-24T11:44:17;27.70;99.90
5689;DHT22;2869;50.432;8.680;2023-06-24T11:46:46;27.60;99.90
5689;DHT22;2869;50.432;8.680;2023-06-24T11:49:13;27.60;99.90
5689;DHT22;2869;50.432;8.680;2023-06-24T11:51:46;27.90;99.90
5689;DHT22;2869;50.432;8.680;2023-06-24T11:54:15;28.30;99.90
5689;DHT22;2869;50.432;8.680;2023-06-24T11:56:44;28.90;99.90
5689;DHT22;2869;50.432;8.680;2023-06-24T11:59:18;29.20;99.90
5689;DHT22;2869;50.432;8.680;2023-06-24T12:01:52;28.80;99.90
5689;DHT22;2869;50.432;8.680;2023-06-24T12:04:19;28.40;99.90
5689;DHT22;2869;50.432;8.680;2023-06-24T12:06:46;28.10;99.90
5689;DHT22;2869;50.432;8.680;2023-06-24T12:09:13;28.20;99.90
5689;DHT22;2869;50.432;8.680;2023-06-24T12:11:41;28.10;99.90
5689;DHT22;2869;50.432;8.680;2023-06-24T12:14:08;28.20;99.90
5689;DHT22;2869;50.432;8.680;2023-06-24T12:16:34;28.30;99.90
5689;DHT22;2869;50.432;8.680;2023-06-24T12:19:02;28.40;99.90
5689;DHT22;2869;50.432;8.680;2023-06-24T12:21:29;28.40;99.90
5689;DHT22;2869;50.432;8.680;2023-06-24T12:23:55;28.60;99.90
5689;DHT22;2869;50.432;8.680;2023-06-24T12:26:22;28.70;99.90
5689;DHT22;2869;50.432;8.680;2023-06-24T12:28:49;28.80;99.90
5689;DHT22;2869;50.432;8.680;2023-06-24T12:31:15;28.70;99.90
5689;DHT22;2869;50.432;8.680;2023-06-24T12:33:42;28.60;99.90
5689;DHT22;2869;50.432;8.680;2023-06-24T12:36:10;28.40;99.90
5689;DHT22;2869;50.432;8.680;2023-06-24T12:38:36;28.20;99.90
5689;DHT22;2869;50.432;8.680;2023-06-24T12:41:03;27.90;99.90
5689;DHT22;2869;50.432;8.680;2023-06-24T12:43:30;27.80;99.90
5689;DHT22;2869;50.432;8.680;2023-06-24T12:45:57;27.60;99.90
5689;DHT22;2869;50.432;8.680;2023-06-24T12:48:24;27.80;99.90
5689;DHT22;2869;50.432;8.680;2023-06-24T12:50:51;27.90;99.90
5689;DHT22;2869;50.432;8.680;2023-06-24T12:53:20;27.80;99.90
5689;DHT22;2869;50.432;8.680;2023-06-24T12:55:46;27.80;99.90
5689;DHT22;2869;50.432;8.680;2023-06-24T12:58:13;27.60;99.90
5689;DHT22;2869;50.432;8.680;2023-06-24T13:00:40;27.50;99.90
5689;DHT22;2869;50.432;8.680;2023-06-24T13:03:07;27.30;99.90
5689;DHT22;2869;50.432;8.680;2023-06-24T13:05:34;27.10;99.90
5689;DHT22;2869;50.432;8.680;2023-06-24T13:08:00;27.20;99.90
5689;DHT22;2869;50.432;8.680;2023-06-24T13:10:28;27.10;99.90
5689;DHT22;2869;50.432;8.680;2023-06-24T13:12:55;27.20;99.90
5689;DHT22;2869;50.432;8.680;2023-06-24T13:15:22;27.00;99.90
5689;DHT22;2869;50.432;8.680;2023-06-24T13:17:49;27.00;99.90
5689;DHT22;2869;50.432;8.680;2023-06-24T13:20:16;27.00;99.90
5689;DHT22;2869;50.432;8.680;2023-06-24T13:22:42;27.10;99.90
5689;DHT22;2869;50.432;8.680;2023-06-24T13:25:09;27.20;99.90
5689;DHT22;2869;50.432;8.680;2023-06-24T13:27:37;27.30;99.90
5689;DHT22;2869;50.432;8.680;2023-06-24T13:30:05;27.20;99.90
5689;DHT22;2869;50.432;8.680;2023-06-24T13:32:32;27.20;99.90
5689;DHT22;2869;50.432;8.680;2023-06-24T13:34:58;27.30;99.90
5689;DHT22;2869;50.432;8.680;2023-06-24T13:37:25;27.40;99.90
5689;DHT22;2869;50.432;8.680;2023-06-24T13:39:52;27.30;99.90
5689;DHT22;2869;50.432;8.680;2023-06-24T13:42:18;27.20;99.90
5689;DHT22;2869;50.432;8.680;2023-06-24T13:44:46;27.10;99.90
5689;DHT22;2869;50.432;8.680;2023-06-24T13:47:13;27.10;99.90
5689;DHT22;2869;50.432;8.680;2023-06-24T13:49:39;27.10;99.90
5689;DHT22;2869;50.432;8.680;2023-06-24T13:52:06;27.50;99.90
5689;DHT22;2869;50.432;8.680;2023-06-24T13:54:33;27.90;99.90
5689;DHT22;2869;50.432;8.680;2023-06-24T13:57:00;28.20;99.90
5689;DHT22;2869;50.432;8.680;2023-06-24T13:59:27;28.10;99.90
5689;DHT22;2869;50.432;8.680;2023-06-24T14:01:55;28.20;99.90
5689;DHT22;2869;50.432;8.680;2023-06-24T14:04:22;28.10;99.90
5689;DHT22;2869;50.432;8.680;2023-06-24T14:06:48;27.90;99.90
5689;DHT22;2869;50.432;8.680;2023-06-24T14:09:15;27.80;99.90
5689;DHT22;2869;50.432;8.680;2023-06-24T14:11:42;27.90;99.90
5689;DHT22;2869;50.432;8.680;2023-06-24T14:14:08;27.70;99.90
5689;DHT22;2869;50.432;8.680;2023-06-24T14:16:35;27.60;99.90
5689;DHT22;2869;50.432;8.680;2023-06-24T14:19:03;27.60;99.90
5689;DHT22;2869;50.432;8.680;2023-06-24T14:21:30;27.70;99.90
5689;DHT22;2869;50.432;8.680;2023-06-24T14:23:57;27.80;99.90
5689;DHT22;2869;50.432;8.680;2023-06-24T14:26:24;27.80;99.90
5689;DHT22;2869;50.432;8.680;2023-06-24T14:28:50;27.70;99.90
5689;DHT22;2869;50.432;8.680;2023-06-24T14:31:17;27.70;99.90
5689;DHT22;2869;50.432;8.680;2023-06-24T14:33:43;27.70;99.90
5689;DHT22;2869;50.432;8.680;2023-06-24T14:36:11;27.80;99.90
5689;DHT22;2869;50.432;8.680;2023-06-24T14:38:38;27.90;99.90
5689;DHT22;2869;50.432;8.680;2023-06-24T14:41:06;28.00;99.90
5689;DHT22;2869;50.432;8.680;2023-06-24T14:43:33;28.00;99.90
5689;DHT22;2869;50.432;8.680;2023-06-24T14:46:00;28.20;99.90
5689;DHT22;2869;50.432;8.680;2023-06-24T14:48:27;28.30;99.90
5689;DHT22;2869;50.432;8.680;2023-06-24T14:50:54;28.30;99.90
5689;DHT22;2869;50.432;8.680;2023-06-24T14:53:22;28.30;99.90
5689;DHT22;2869;50.432;8.680;2023-06-24T14:55:48;28.40;99.90
5689;DHT22;2869;50.432;8.680;2023-06-24T14:58:15;28.30;99.90
5689;DHT22;2869;50.432;8.680;2023-06-24T15:00:41;28.40;99.90
5689;DHT22;2869;50.432;8.680;2023-06-24T15:03:08;28.50;99.90
5689;DHT22;2869;50.432;8.680;2023-06-24T15:05:35;28.50;99.90
5689;DHT22;2869;50.432;8.680;2023-06-24T15:08:01;28.50;99.90
5689;DHT22;2869;50.432;8.680;2023-06-24T15:10:29;28.40;99.90
5689;DHT22;2869;50.432;8.680;2023-06-24T15:12:56;28.40;99.90
5689;DHT22;2869;50.432;8.680;2023-06-24T15:15:22;28.30;99.90
5689;DHT22;2869;50.432;8.680;2023-06-24T15:17:49;28.30;99.90
5689;DHT22;2869;50.432;8.680;2023-06-24T15:20:16;28.20;99.90
5689;DHT22;2869;50.432;8.680;2023-06-24T15:22:42;28.30;99.90
5689;DHT22;2869;50.432;8.680;2023-06-24T15:25:09;28.30;99.90
5689;DHT22;2869;50.432;8.680;2023-06-24T15:27:37;28.30;99.90
5689;DHT22;2869;50.432;8.680;2023-06-24T15:30:04;28.40;99.90
5689;DHT22;2869;50.432;8.680;2023-06-24T15:32:31;28.40;99.90
5689;DHT22;2869;50.432;8.680;2023-06-24T15:34:58;28.50;99.90
5689;DHT22;2869;50.432;8.680;2023-06-24T15:37:24;28.50;99.90
5689;DHT22;2869;50.432;8.680;2023-06-24T15:39:51;28.40;99.90
5689;DHT22;2869;50.432;8.680;2023-06-24T15:42:17;28.60;99.90
5689;DHT22;2869;50.432;8.680;2023-06-24T15:44:45;28.70;99.90
5689;DHT22;2869;50.432;8.680;2023-06-24T15:47:12;28.70;99.90
5689;DHT22;2869;50.432;8.680;2023-06-24T15:49:39;28.60;99.90
5689;DHT22;2869;50.432;8.680;2023-06-24T15:52:06;28.60;99.90
5689;DHT22;2869;50.432;8.680;2023-06-24T15:54:33;28.60;99.90
5689;DHT22;2869;50.432;8.680;2023-06-24T15:56:59;28.70;99.90
5689;DHT22;2869;50.432;8.680;2023-06-24T15:59:26;28.60;99.90
5689;DHT22;2869;50.432;8.680;2023-06-24T16:01:54;28.50;99.90
5689;DHT22;2869;50.432;8.680;2023-06-24T16:04:20;28.30;99.90
5689;DHT22;2869;50.432;8.680;2023-06-24T16:06:47;28.40;99.90
5689;DHT22;2869;50.432;8.680;2023-06-24T16:09:14;28.50;99.90